sensor_id;sensor_type;location;lat;lon;timestamp;P1;durP1;ratioP1;P2;durP2;ratioP2
10509;SDS011;5303;53.266;10.410;2023-03-01T00:01:05;13.13;;;7.43;;
10509;SDS011;5303;53.266;10.410;2023-03-01T00:03:33;10.17;;;6.67;;
10509;SDS011;5303;53.266;10.410;2023-03-01T00:05:59;9.60;;;6.27;;
10509;SDS011;5303;53.266;10.410;2023-03-01T00:08:25;10.47;;;7.20;;
10509;SDS011;5303;53.266;10.410;2023-03-01T00:13:31;10.03;;;6.73;;
10509;SDS011;5303;53.266;10.410;2023-03-01T00:15:56;14.87;;;7.10;;
10509;SDS011;5303;53.266;10.410;2023-03-01T00:18:22;11.47;;;6.43;;
10509;SDS011;5303;53.266;10.410;2023-03-01T00:20:51;11.27;;;6.83;;
10509;SDS011;5303;53.266;10.410;2023-03-01T00:23:18;9.33;;;6.77;;
10509;SDS011;5303;53.266;10.410;2023-03-01T00:25:43;11.20;;;6.53;;
10509;SDS011;5303;53.266;10.410;2023-03-01T00:28:09;11.40;;;6.60;;
10509;SDS011;5303;53.266;10.410;2023-03-01T00:30:34;12.37;;;6.90;;
10509;SDS011;5303;53.266;10.410;2023-03-01T00:32:59;9.97;;;6.80;;
10509;SDS011;5303;53.266;10.410;2023-03-01T00:35:24;12.67;;;7.33;;
10509;SDS011;5303;53.266;10.410;2023-03-01T00:37:50;9.73;;;6.67;;
10509;SDS011;5303;53.266;10.410;2023-03-01T00:40:22;9.00;;;6.90;;
10509;SDS011;5303;53.266;10.410;2023-03-01T00:42:49;10.60;;;7.00;;
10509;SDS011;5303;53.266;10.410;2023-03-01T00:45:14;9.93;;;7.27;;
10509;SDS011;5303;53.266;10.410;2023-03-01T00:47:39;10.37;;;7.20;;
10509;SDS011;5303;53.266;10.410;2023-03-01T00:50:05;10.17;;;7.00;;
10509;SDS011;5303;53.266;10.410;2023-03-01T00:52:30;10.17;;;7.20;;
10509;SDS011;5303;53.266;10.410;2023-03-01T00:54:56;12.07;;;6.77;;
10509;SDS011;5303;53.266;10.410;2023-03-01T00:57:22;10.83;;;6.13;;
10509;SDS011;5303;53.266;10.410;2023-03-01T00:59:48;10.73;;;6.10;;
10509;SDS011;5303;53.266;10.410;2023-03-01T01:02:13;10.23;;;6.70;;
10509;SDS011;5303;53.266;10.410;2023-03-01T01:04:38;12.17;;;7.63;;
10509;SDS011;5303;53.266;10.410;2023-03-01T01:07:04;9.73;;;6.63;;
10509;SDS011;5303;53.266;10.410;2023-03-01T01:09:30;8.97;;;6.53;;
10509;SDS011;5303;53.266;10.410;2023-03-01T01:11:55;10.77;;;7.13;;
10509;SDS011;5303;53.266;10.410;2023-03-01T01:14:21;12.10;;;7.07;;
10509;SDS011;5303;53.266;10.410;2023-03-01T01:16:46;12.07;;;7.10;;
10509;SDS011;5303;53.266;10.410;2023-03-01T01:19:12;12.53;;;7.60;;
10509;SDS011;5303;53.266;10.410;2023-03-01T01:21:38;10.93;;;7.07;;
10509;SDS011;5303;53.266;10.410;2023-03-01T01:24:04;10.63;;;6.77;;
10509;SDS011;5303;53.266;10.410;2023-03-01T01:26:31;10.20;;;6.90;;
10509;SDS011;5303;53.266;10.410;2023-03-01T01:28:59;11.63;;;7.23;;
10509;SDS011;5303;53.266;10.410;2023-03-01T01:31:26;9.30;;;6.77;;
10509;SDS011;5303;53.266;10.410;2023-03-01T01:33:53;9.70;;;7.43;;
10509;SDS011;5303;53.266;10.410;2023-03-01T01:36:19;12.53;;;7.07;;
10509;SDS011;5303;53.266;10.410;2023-03-01T01:38:45;11.03;;;6.90;;
10509;SDS011;5303;53.266;10.410;2023-03-01T01:41:11;11.00;;;7.20;;
10509;SDS011;5303;53.266;10.410;2023-03-01T01:43:38;10.20;;;6.50;;
10509;SDS011;5303;53.266;10.410;2023-03-01T01:48:56;10.93;;;6.30;;
10509;SDS011;5303;53.266;10.410;2023-03-01T01:51:36;8.50;;;6.07;;
10509;SDS011;5303;53.266;10.410;2023-03-01T01:54:09;9.57;;;6.57;;
10509;SDS011;5303;53.266;10.410;2023-03-01T01:56:46;8.47;;;6.30;;
10509;SDS011;5303;53.266;10.410;2023-03-01T01:59:16;8.70;;;6.30;;
10509;SDS011;5303;53.266;10.410;2023-03-01T02:01:42;8.43;;;5.77;;
10509;SDS011;5303;53.266;10.410;2023-03-01T02:04:08;9.27;;;5.97;;
10509;SDS011;5303;53.266;10.410;2023-03-01T02:06:36;9.37;;;6.20;;
10509;SDS011;5303;53.266;10.410;2023-03-01T02:09:07;9.17;;;5.93;;
10509;SDS011;5303;53.266;10.410;2023-03-01T02:11:39;9.30;;;6.30;;
10509;SDS011;5303;53.266;10.410;2023-03-01T02:14:05;10.03;;;5.97;;
10509;SDS011;5303;53.266;10.410;2023-03-01T02:16:31;8.53;;;6.13;;
10509;SDS011;5303;53.266;10.410;2023-03-01T02:18:57;8.17;;;5.93;;
10509;SDS011;5303;53.266;10.410;2023-03-01T02:24:00;9.87;;;6.13;;
10509;SDS011;5303;53.266;10.410;2023-03-01T02:26:41;7.67;;;5.60;;
10509;SDS011;5303;53.266;10.410;2023-03-01T02:29:11;7.77;;;5.73;;
10509;SDS011;5303;53.266;10.410;2023-03-01T02:31:37;8.73;;;5.60;;
10509;SDS011;5303;53.266;10.410;2023-03-01T02:34:09;7.37;;;5.30;;
10509;SDS011;5303;53.266;10.410;2023-03-01T02:36:42;8.30;;;5.10;;
10509;SDS011;5303;53.266;10.410;2023-03-01T02:39:12;11.07;;;6.13;;
10509;SDS011;5303;53.266;10.410;2023-03-01T02:41:53;9.47;;;5.70;;
10509;SDS011;5303;53.266;10.410;2023-03-01T02:44:20;10.57;;;6.57;;
10509;SDS011;5303;53.266;10.410;2023-03-01T02:46:50;8.47;;;5.67;;
10509;SDS011;5303;53.266;10.410;2023-03-01T02:49:25;9.87;;;5.87;;
10509;SDS011;5303;53.266;10.410;2023-03-01T02:52:01;9.03;;;5.60;;
10509;SDS011;5303;53.266;10.410;2023-03-01T02:54:44;9.70;;;5.43;;
10509;SDS011;5303;53.266;10.410;2023-03-01T02:57:16;7.07;;;5.50;;
10509;SDS011;5303;53.266;10.410;2023-03-01T02:59:42;7.17;;;4.97;;
10509;SDS011;5303;53.266;10.410;2023-03-01T03:02:18;7.60;;;5.33;;
10509;SDS011;5303;53.266;10.410;2023-03-01T03:05:01;8.20;;;5.40;;
10509;SDS011;5303;53.266;10.410;2023-03-01T03:07:31;6.73;;;4.53;;
10509;SDS011;5303;53.266;10.410;2023-03-01T03:09:57;7.93;;;5.57;;
10509;SDS011;5303;53.266;10.410;2023-03-01T03:12:23;7.10;;;4.70;;
10509;SDS011;5303;53.266;10.410;2023-03-01T03:14:48;6.57;;;4.77;;
10509;SDS011;5303;53.266;10.410;2023-03-01T03:17:13;8.30;;;5.17;;
10509;SDS011;5303;53.266;10.410;2023-03-01T03:19:39;6.00;;;4.53;;
10509;SDS011;5303;53.266;10.410;2023-03-01T03:22:04;7.47;;;5.10;;
10509;SDS011;5303;53.266;10.410;2023-03-01T03:24:29;8.50;;;5.00;;
10509;SDS011;5303;53.266;10.410;2023-03-01T03:27:02;6.83;;;4.90;;
10509;SDS011;5303;53.266;10.410;2023-03-01T03:29:28;8.43;;;4.63;;
10509;SDS011;5303;53.266;10.410;2023-03-01T03:31:54;8.50;;;4.73;;
10509;SDS011;5303;53.266;10.410;2023-03-01T03:34:19;5.17;;;3.90;;
10509;SDS011;5303;53.266;10.410;2023-03-01T03:36:44;6.57;;;3.90;;
10509;SDS011;5303;53.266;10.410;2023-03-01T03:39:09;7.47;;;4.20;;
10509;SDS011;5303;53.266;10.410;2023-03-01T03:41:35;7.37;;;4.53;;
10509;SDS011;5303;53.266;10.410;2023-03-01T03:44:00;7.70;;;4.43;;
10509;SDS011;5303;53.266;10.410;2023-03-01T03:46:25;5.70;;;3.93;;
10509;SDS011;5303;53.266;10.410;2023-03-01T03:48:51;5.37;;;3.97;;
10509;SDS011;5303;53.266;10.410;2023-03-01T03:51:16;6.07;;;3.70;;
10509;SDS011;5303;53.266;10.410;2023-03-01T03:53:43;5.93;;;4.03;;
10509;SDS011;5303;53.266;10.410;2023-03-01T03:56:09;5.23;;;3.70;;
10509;SDS011;5303;53.266;10.410;2023-03-01T03:58:35;6.07;;;4.17;;
10509;SDS011;5303;53.266;10.410;2023-03-01T04:01:00;6.03;;;4.10;;
10509;SDS011;5303;53.266;10.410;2023-03-01T04:03:27;6.60;;;3.97;;
10509;SDS011;5303;53.266;10.410;2023-03-01T04:05:53;6.43;;;3.90;;
10509;SDS011;5303;53.266;10.410;2023-03-01T04:08:20;5.20;;;3.90;;
10509;SDS011;5303;53.266;10.410;2023-03-01T04:10:47;6.57;;;4.27;;
10509;SDS011;5303;53.266;10.410;2023-03-01T04:13:16;5.63;;;3.40;;
10509;SDS011;5303;53.266;10.410;2023-03-01T04:15:44;5.03;;;3.60;;
10509;SDS011;5303;53.266;10.410;2023-03-01T04:18:20;6.70;;;4.27;;
10509;SDS011;5303;53.266;10.410;2023-03-01T04:20:46;4.53;;;3.80;;
10509;SDS011;5303;53.266;10.410;2023-03-01T04:23:13;6.23;;;4.67;;
10509;SDS011;5303;53.266;10.410;2023-03-01T04:25:42;5.13;;;3.70;;
10509;SDS011;5303;53.266;10.410;2023-03-01T04:31:01;4.93;;;3.80;;
10509;SDS011;5303;53.266;10.410;2023-03-01T04:33:37;10.80;;;5.80;;
10509;SDS011;5303;53.266;10.410;2023-03-01T04:36:04;12.13;;;6.60;;
10509;SDS011;5303;53.266;10.410;2023-03-01T04:38:30;7.70;;;5.70;;
10509;SDS011;5303;53.266;10.410;2023-03-01T04:40:55;7.67;;;4.37;;
10509;SDS011;5303;53.266;10.410;2023-03-01T04:43:21;6.30;;;3.83;;
10509;SDS011;5303;53.266;10.410;2023-03-01T04:45:46;5.83;;;3.97;;
10509;SDS011;5303;53.266;10.410;2023-03-01T04:48:11;7.70;;;4.10;;
10509;SDS011;5303;53.266;10.410;2023-03-01T04:50:37;7.03;;;3.90;;
10509;SDS011;5303;53.266;10.410;2023-03-01T04:53:02;5.10;;;3.80;;
10509;SDS011;5303;53.266;10.410;2023-03-01T04:55:28;6.40;;;4.10;;
10509;SDS011;5303;53.266;10.410;2023-03-01T04:57:54;5.80;;;3.73;;
10509;SDS011;5303;53.266;10.410;2023-03-01T05:00:20;4.87;;;3.80;;
10509;SDS011;5303;53.266;10.410;2023-03-01T05:02:47;5.80;;;3.40;;
10509;SDS011;5303;53.266;10.410;2023-03-01T05:05:14;7.53;;;4.40;;
10509;SDS011;5303;53.266;10.410;2023-03-01T05:07:40;5.60;;;4.20;;
10509;SDS011;5303;53.266;10.410;2023-03-01T05:10:05;6.33;;;3.97;;
10509;SDS011;5303;53.266;10.410;2023-03-01T05:12:30;6.07;;;4.20;;
10509;SDS011;5303;53.266;10.410;2023-03-01T05:14:56;7.10;;;4.37;;
10509;SDS011;5303;53.266;10.410;2023-03-01T05:17:21;7.20;;;4.20;;
10509;SDS011;5303;53.266;10.410;2023-03-01T05:19:46;6.63;;;4.30;;
10509;SDS011;5303;53.266;10.410;2023-03-01T05:22:11;7.87;;;4.40;;
10509;SDS011;5303;53.266;10.410;2023-03-01T05:24:37;8.20;;;4.77;;
10509;SDS011;5303;53.266;10.410;2023-03-01T05:27:03;6.50;;;4.60;;
10509;SDS011;5303;53.266;10.410;2023-03-01T05:29:29;7.33;;;4.77;;
10509;SDS011;5303;53.266;10.410;2023-03-01T05:31:57;5.33;;;3.70;;
10509;SDS011;5303;53.266;10.410;2023-03-01T05:34:26;6.23;;;3.60;;
10509;SDS011;5303;53.266;10.410;2023-03-01T05:36:53;5.37;;;3.83;;
10509;SDS011;5303;53.266;10.410;2023-03-01T05:39:22;5.47;;;3.90;;
10509;SDS011;5303;53.266;10.410;2023-03-01T05:41:57;5.53;;;3.70;;
10509;SDS011;5303;53.266;10.410;2023-03-01T05:44:23;4.97;;;3.80;;
10509;SDS011;5303;53.266;10.410;2023-03-01T05:46:50;5.30;;;3.77;;
10509;SDS011;5303;53.266;10.410;2023-03-01T05:49:16;5.60;;;3.27;;
10509;SDS011;5303;53.266;10.410;2023-03-01T05:51:42;6.27;;;3.80;;
10509;SDS011;5303;53.266;10.410;2023-03-01T05:54:10;7.23;;;3.90;;
10509;SDS011;5303;53.266;10.410;2023-03-01T05:56:36;6.83;;;4.17;;
10509;SDS011;5303;53.266;10.410;2023-03-01T05:59:02;5.73;;;4.17;;
10509;SDS011;5303;53.266;10.410;2023-03-01T06:01:28;5.33;;;4.13;;
10509;SDS011;5303;53.266;10.410;2023-03-01T06:03:54;6.03;;;3.90;;
10509;SDS011;5303;53.266;10.410;2023-03-01T06:06:20;6.40;;;3.63;;
10509;SDS011;5303;53.266;10.410;2023-03-01T06:08:45;6.60;;;3.93;;
10509;SDS011;5303;53.266;10.410;2023-03-01T06:11:11;6.40;;;4.73;;
10509;SDS011;5303;53.266;10.410;2023-03-01T06:13:36;5.70;;;3.83;;
10509;SDS011;5303;53.266;10.410;2023-03-01T06:16:04;7.23;;;4.40;;
10509;SDS011;5303;53.266;10.410;2023-03-01T06:18:31;5.63;;;3.53;;
10509;SDS011;5303;53.266;10.410;2023-03-01T06:20:56;6.93;;;3.33;;
10509;SDS011;5303;53.266;10.410;2023-03-01T06:23:22;4.90;;;3.60;;
10509;SDS011;5303;53.266;10.410;2023-03-01T06:25:48;5.03;;;3.20;;
10509;SDS011;5303;53.266;10.410;2023-03-01T06:28:13;5.67;;;3.30;;
10509;SDS011;5303;53.266;10.410;2023-03-01T06:30:39;4.80;;;3.40;;
10509;SDS011;5303;53.266;10.410;2023-03-01T06:33:04;6.60;;;3.87;;
10509;SDS011;5303;53.266;10.410;2023-03-01T06:35:30;5.80;;;3.90;;
10509;SDS011;5303;53.266;10.410;2023-03-01T06:37:56;5.47;;;3.70;;
10509;SDS011;5303;53.266;10.410;2023-03-01T06:40:22;5.17;;;3.53;;
10509;SDS011;5303;53.266;10.410;2023-03-01T06:42:48;8.70;;;4.00;;
10509;SDS011;5303;53.266;10.410;2023-03-01T06:45:15;6.23;;;3.70;;
10509;SDS011;5303;53.266;10.410;2023-03-01T06:47:41;4.97;;;3.70;;
10509;SDS011;5303;53.266;10.410;2023-03-01T06:50:06;6.50;;;3.47;;
10509;SDS011;5303;53.266;10.410;2023-03-01T06:52:32;4.53;;;3.10;;
10509;SDS011;5303;53.266;10.410;2023-03-01T06:54:58;6.57;;;3.70;;
10509;SDS011;5303;53.266;10.410;2023-03-01T06:57:23;5.70;;;3.60;;
10509;SDS011;5303;53.266;10.410;2023-03-01T06:59:49;7.50;;;3.80;;
10509;SDS011;5303;53.266;10.410;2023-03-01T07:02:14;5.17;;;3.37;;
10509;SDS011;5303;53.266;10.410;2023-03-01T07:04:40;7.17;;;3.30;;
10509;SDS011;5303;53.266;10.410;2023-03-01T07:07:06;4.83;;;3.37;;
10509;SDS011;5303;53.266;10.410;2023-03-01T07:09:32;6.33;;;4.40;;
10509;SDS011;5303;53.266;10.410;2023-03-01T07:11:57;5.67;;;4.03;;
10509;SDS011;5303;53.266;10.410;2023-03-01T07:14:23;6.30;;;3.67;;
10509;SDS011;5303;53.266;10.410;2023-03-01T07:16:52;6.97;;;3.93;;
10509;SDS011;5303;53.266;10.410;2023-03-01T07:19:17;5.37;;;3.60;;
10509;SDS011;5303;53.266;10.410;2023-03-01T07:21:43;5.80;;;3.43;;
10509;SDS011;5303;53.266;10.410;2023-03-01T07:24:09;5.80;;;3.53;;
10509;SDS011;5303;53.266;10.410;2023-03-01T07:26:35;4.70;;;3.23;;
10509;SDS011;5303;53.266;10.410;2023-03-01T07:29:00;4.67;;;3.37;;
10509;SDS011;5303;53.266;10.410;2023-03-01T07:31:27;5.23;;;3.47;;
10509;SDS011;5303;53.266;10.410;2023-03-01T07:33:53;5.00;;;3.60;;
10509;SDS011;5303;53.266;10.410;2023-03-01T07:36:18;7.27;;;4.80;;
10509;SDS011;5303;53.266;10.410;2023-03-01T07:38:44;5.17;;;3.33;;
10509;SDS011;5303;53.266;10.410;2023-03-01T07:41:09;5.73;;;3.43;;
10509;SDS011;5303;53.266;10.410;2023-03-01T07:43:34;5.10;;;3.70;;
10509;SDS011;5303;53.266;10.410;2023-03-01T07:46:00;4.93;;;2.90;;
10509;SDS011;5303;53.266;10.410;2023-03-01T07:48:27;4.77;;;3.70;;
10509;SDS011;5303;53.266;10.410;2023-03-01T07:50:53;3.70;;;2.93;;
10509;SDS011;5303;53.266;10.410;2023-03-01T07:53:18;5.23;;;3.67;;
10509;SDS011;5303;53.266;10.410;2023-03-01T07:55:43;6.80;;;3.27;;
10509;SDS011;5303;53.266;10.410;2023-03-01T07:58:08;5.47;;;3.30;;
10509;SDS011;5303;53.266;10.410;2023-03-01T08:00:34;6.37;;;3.70;;
10509;SDS011;5303;53.266;10.410;2023-03-01T08:03:00;4.40;;;3.33;;
10509;SDS011;5303;53.266;10.410;2023-03-01T08:05:26;5.73;;;3.67;;
10509;SDS011;5303;53.266;10.410;2023-03-01T08:07:51;8.03;;;4.97;;
10509;SDS011;5303;53.266;10.410;2023-03-01T08:10:17;5.27;;;3.50;;
10509;SDS011;5303;53.266;10.410;2023-03-01T08:12:42;6.87;;;4.10;;
10509;SDS011;5303;53.266;10.410;2023-03-01T08:15:08;8.93;;;4.73;;
10509;SDS011;5303;53.266;10.410;2023-03-01T08:17:34;8.90;;;4.83;;
10509;SDS011;5303;53.266;10.410;2023-03-01T08:19:59;7.07;;;4.43;;
10509;SDS011;5303;53.266;10.410;2023-03-01T08:22:24;6.27;;;4.10;;
10509;SDS011;5303;53.266;10.410;2023-03-01T08:24:50;6.40;;;4.40;;
10509;SDS011;5303;53.266;10.410;2023-03-01T08:27:16;7.93;;;4.67;;
10509;SDS011;5303;53.266;10.410;2023-03-01T08:29:41;8.03;;;4.23;;
10509;SDS011;5303;53.266;10.410;2023-03-01T08:32:07;9.67;;;4.47;;
10509;SDS011;5303;53.266;10.410;2023-03-01T08:34:32;6.27;;;3.80;;
10509;SDS011;5303;53.266;10.410;2023-03-01T08:37:00;5.07;;;3.90;;
10509;SDS011;5303;53.266;10.410;2023-03-01T08:39:26;8.40;;;3.73;;
10509;SDS011;5303;53.266;10.410;2023-03-01T08:41:51;6.53;;;3.70;;
10509;SDS011;5303;53.266;10.410;2023-03-01T08:44:16;4.60;;;3.80;;
10509;SDS011;5303;53.266;10.410;2023-03-01T08:46:42;5.03;;;3.90;;
10509;SDS011;5303;53.266;10.410;2023-03-01T08:49:12;7.77;;;4.13;;
10509;SDS011;5303;53.266;10.410;2023-03-01T08:51:42;5.27;;;4.00;;
10509;SDS011;5303;53.266;10.410;2023-03-01T08:54:12;18.37;;;8.47;;
10509;SDS011;5303;53.266;10.410;2023-03-01T08:56:40;17.27;;;8.90;;
10509;SDS011;5303;53.266;10.410;2023-03-01T08:59:05;16.60;;;7.43;;
10509;SDS011;5303;53.266;10.410;2023-03-01T09:01:30;8.20;;;5.60;;
10509;SDS011;5303;53.266;10.410;2023-03-01T09:03:56;7.33;;;4.50;;
10509;SDS011;5303;53.266;10.410;2023-03-01T09:06:21;7.70;;;4.27;;
10509;SDS011;5303;53.266;10.410;2023-03-01T09:08:47;9.43;;;5.00;;
10509;SDS011;5303;53.266;10.410;2023-03-01T09:11:14;8.60;;;4.90;;
10509;SDS011;5303;53.266;10.410;2023-03-01T09:13:42;7.17;;;4.53;;
10509;SDS011;5303;53.266;10.410;2023-03-01T09:16:12;6.03;;;4.50;;
10509;SDS011;5303;53.266;10.410;2023-03-01T09:18:38;8.07;;;5.43;;
10509;SDS011;5303;53.266;10.410;2023-03-01T09:21:04;6.00;;;4.33;;
10509;SDS011;5303;53.266;10.410;2023-03-01T09:23:38;8.23;;;5.70;;
10509;SDS011;5303;53.266;10.410;2023-03-01T09:26:05;7.27;;;5.13;;
10509;SDS011;5303;53.266;10.410;2023-03-01T09:28:31;9.50;;;5.20;;
10509;SDS011;5303;53.266;10.410;2023-03-01T09:30:57;6.93;;;4.50;;
10509;SDS011;5303;53.266;10.410;2023-03-01T09:33:24;6.93;;;5.27;;
10509;SDS011;5303;53.266;10.410;2023-03-01T09:35:49;11.20;;;6.17;;
10509;SDS011;5303;53.266;10.410;2023-03-01T09:38:15;8.60;;;6.17;;
10509;SDS011;5303;53.266;10.410;2023-03-01T09:40:43;10.53;;;6.13;;
10509;SDS011;5303;53.266;10.410;2023-03-01T09:43:31;12.10;;;6.10;;
10509;SDS011;5303;53.266;10.410;2023-03-01T09:46:09;8.50;;;5.83;;
10509;SDS011;5303;53.266;10.410;2023-03-01T09:48:49;15.33;;;8.27;;
10509;SDS011;5303;53.266;10.410;2023-03-01T09:51:37;13.10;;;7.60;;
10509;SDS011;5303;53.266;10.410;2023-03-01T09:54:02;11.10;;;6.83;;
10509;SDS011;5303;53.266;10.410;2023-03-01T09:56:34;11.60;;;6.97;;
10509;SDS011;5303;53.266;10.410;2023-03-01T10:04:55;11.83;;;6.23;;
10509;SDS011;5303;53.266;10.410;2023-03-01T10:07:49;13.03;;;6.30;;
10509;SDS011;5303;53.266;10.410;2023-03-01T10:10:38;11.00;;;6.10;;
10509;SDS011;5303;53.266;10.410;2023-03-01T10:13:14;11.70;;;6.30;;
10509;SDS011;5303;53.266;10.410;2023-03-01T10:15:47;10.33;;;5.37;;
10509;SDS011;5303;53.266;10.410;2023-03-01T10:18:20;11.13;;;5.90;;
10509;SDS011;5303;53.266;10.410;2023-03-01T10:20:53;13.13;;;6.83;;
10509;SDS011;5303;53.266;10.410;2023-03-01T10:23:23;9.20;;;6.27;;
10509;SDS011;5303;53.266;10.410;2023-03-01T10:31:18;8.03;;;6.27;;
10509;SDS011;5303;53.266;10.410;2023-03-01T10:33:52;9.07;;;6.70;;
10509;SDS011;5303;53.266;10.410;2023-03-01T10:36:20;11.20;;;6.20;;
10509;SDS011;5303;53.266;10.410;2023-03-01T10:38:50;9.30;;;6.90;;
10509;SDS011;5303;53.266;10.410;2023-03-01T10:41:21;10.67;;;6.43;;
10509;SDS011;5303;53.266;10.410;2023-03-01T10:43:52;10.50;;;6.30;;
10509;SDS011;5303;53.266;10.410;2023-03-01T10:46:24;10.87;;;6.30;;
10509;SDS011;5303;53.266;10.410;2023-03-01T10:51:39;11.00;;;6.70;;
10509;SDS011;5303;53.266;10.410;2023-03-01T10:54:06;9.37;;;6.40;;
10509;SDS011;5303;53.266;10.410;2023-03-01T10:56:57;10.77;;;6.20;;
10509;SDS011;5303;53.266;10.410;2023-03-01T10:59:27;10.20;;;6.73;;
10509;SDS011;5303;53.266;10.410;2023-03-01T11:05:00;10.37;;;5.97;;
10509;SDS011;5303;53.266;10.410;2023-03-01T11:07:47;10.63;;;6.90;;
10509;SDS011;5303;53.266;10.410;2023-03-01T11:10:22;11.03;;;7.00;;
10509;SDS011;5303;53.266;10.410;2023-03-01T11:12:50;10.93;;;7.53;;
10509;SDS011;5303;53.266;10.410;2023-03-01T11:15:26;11.97;;;6.83;;
10509;SDS011;5303;53.266;10.410;2023-03-01T11:17:53;9.80;;;6.83;;
10509;SDS011;5303;53.266;10.410;2023-03-01T11:22:55;13.80;;;6.90;;
10509;SDS011;5303;53.266;10.410;2023-03-01T11:25:26;10.03;;;7.17;;
10509;SDS011;5303;53.266;10.410;2023-03-01T11:27:57;12.20;;;7.20;;
10509;SDS011;5303;53.266;10.410;2023-03-01T11:30:28;10.90;;;7.30;;
10509;SDS011;5303;53.266;10.410;2023-03-01T11:35:34;8.63;;;6.30;;
10509;SDS011;5303;53.266;10.410;2023-03-01T11:38:12;10.03;;;7.20;;
10509;SDS011;5303;53.266;10.410;2023-03-01T11:40:46;10.27;;;6.63;;
10509;SDS011;5303;53.266;10.410;2023-03-01T11:51:55;11.47;;;7.70;;
10509;SDS011;5303;53.266;10.410;2023-03-01T11:54:32;10.37;;;7.43;;
10509;SDS011;5303;53.266;10.410;2023-03-01T12:06:18;9.67;;;7.83;;
10509;SDS011;5303;53.266;10.410;2023-03-01T12:26:26;13.70;;;8.60;;
10509;SDS011;5303;53.266;10.410;2023-03-01T12:29:09;13.37;;;8.50;;
10509;SDS011;5303;53.266;10.410;2023-03-01T12:31:49;10.83;;;7.43;;
10509;SDS011;5303;53.266;10.410;2023-03-01T12:37:39;11.63;;;8.03;;
10509;SDS011;5303;53.266;10.410;2023-03-01T12:45:48;11.55;;;9.20;;
10509;SDS011;5303;53.266;10.410;2023-03-01T12:51:09;11.97;;;8.73;;
10509;SDS011;5303;53.266;10.410;2023-03-01T12:53:39;11.40;;;8.40;;
10509;SDS011;5303;53.266;10.410;2023-03-01T12:56:17;11.83;;;9.10;;
10509;SDS011;5303;53.266;10.410;2023-03-01T13:04:14;13.93;;;9.00;;
10509;SDS011;5303;53.266;10.410;2023-03-01T13:06:44;17.57;;;9.67;;
10509;SDS011;5303;53.266;10.410;2023-03-01T13:09:22;12.75;;;10.07;;
10509;SDS011;5303;53.266;10.410;2023-03-01T13:11:58;11.60;;;9.20;;
10509;SDS011;5303;53.266;10.410;2023-03-01T13:16:49;12.57;;;9.20;;
10509;SDS011;5303;53.266;10.410;2023-03-01T13:19:20;12.00;;;9.10;;
10509;SDS011;5303;53.266;10.410;2023-03-01T13:21:48;9.97;;;8.50;;
10509;SDS011;5303;53.266;10.410;2023-03-01T13:37:41;10.87;;;8.10;;
10509;SDS011;5303;53.266;10.410;2023-03-01T13:42:44;11.30;;;8.10;;
10509;SDS011;5303;53.266;10.410;2023-03-01T13:47:49;11.37;;;7.97;;
10509;SDS011;5303;53.266;10.410;2023-03-01T13:50:19;14.87;;;9.20;;
10509;SDS011;5303;53.266;10.410;2023-03-01T13:53:00;10.77;;;8.37;;
10509;SDS011;5303;53.266;10.410;2023-03-01T13:58:15;12.40;;;8.40;;
10509;SDS011;5303;53.266;10.410;2023-03-01T14:00:41;12.20;;;8.80;;
10509;SDS011;5303;53.266;10.410;2023-03-01T14:03:17;12.70;;;8.00;;
10509;SDS011;5303;53.266;10.410;2023-03-01T14:05:56;11.77;;;9.20;;
10509;SDS011;5303;53.266;10.410;2023-03-01T14:08:23;10.60;;;7.90;;
10509;SDS011;5303;53.266;10.410;2023-03-01T14:13:25;11.17;;;8.17;;
10509;SDS011;5303;53.266;10.410;2023-03-01T14:21:24;13.47;;;8.37;;
10509;SDS011;5303;53.266;10.410;2023-03-01T14:23:51;9.53;;;8.17;;
10509;SDS011;5303;53.266;10.410;2023-03-01T14:26:23;12.90;;;9.23;;
10509;SDS011;5303;53.266;10.410;2023-03-01T14:28:49;12.90;;;8.40;;
10509;SDS011;5303;53.266;10.410;2023-03-01T14:34:04;10.70;;;8.13;;
10509;SDS011;5303;53.266;10.410;2023-03-01T14:36:31;11.48;;;7.88;;
10509;SDS011;5303;53.266;10.410;2023-03-01T14:38:58;11.83;;;8.47;;
10509;SDS011;5303;53.266;10.410;2023-03-01T14:41:29;12.50;;;8.97;;
10509;SDS011;5303;53.266;10.410;2023-03-01T14:44:07;11.67;;;8.27;;
10509;SDS011;5303;53.266;10.410;2023-03-01T14:46:41;11.70;;;8.07;;
10509;SDS011;5303;53.266;10.410;2023-03-01T14:49:19;12.27;;;8.37;;
10509;SDS011;5303;53.266;10.410;2023-03-01T14:51:48;10.80;;;8.13;;
10509;SDS011;5303;53.266;10.410;2023-03-01T14:54:23;11.10;;;7.60;;
10509;SDS011;5303;53.266;10.410;2023-03-01T14:56:52;9.50;;;7.53;;
10509;SDS011;5303;53.266;10.410;2023-03-01T14:59:22;12.17;;;8.33;;
10509;SDS011;5303;53.266;10.410;2023-03-01T15:01:49;12.67;;;8.60;;
10509;SDS011;5303;53.266;10.410;2023-03-01T15:04:16;11.13;;;8.13;;
10509;SDS011;5303;53.266;10.410;2023-03-01T15:06:43;11.30;;;7.87;;
10509;SDS011;5303;53.266;10.410;2023-03-01T15:09:11;10.43;;;8.00;;
10509;SDS011;5303;53.266;10.410;2023-03-01T15:11:41;12.40;;;7.63;;
10509;SDS011;5303;53.266;10.410;2023-03-01T15:16:54;10.07;;;7.83;;
10509;SDS011;5303;53.266;10.410;2023-03-01T15:19:20;11.75;;;8.10;;
10509;SDS011;5303;53.266;10.410;2023-03-01T15:21:50;11.20;;;8.03;;
10509;SDS011;5303;53.266;10.410;2023-03-01T15:24:34;11.03;;;7.60;;
10509;SDS011;5303;53.266;10.410;2023-03-01T15:27:01;8.63;;;7.10;;
10509;SDS011;5303;53.266;10.410;2023-03-01T15:29:31;9.40;;;7.13;;
10509;SDS011;5303;53.266;10.410;2023-03-01T15:32:02;10.57;;;7.83;;
10509;SDS011;5303;53.266;10.410;2023-03-01T15:34:31;12.33;;;7.77;;
10509;SDS011;5303;53.266;10.410;2023-03-01T15:36:58;9.73;;;7.03;;
10509;SDS011;5303;53.266;10.410;2023-03-01T15:39:33;9.80;;;6.87;;
10509;SDS011;5303;53.266;10.410;2023-03-01T15:42:02;8.73;;;7.50;;
10509;SDS011;5303;53.266;10.410;2023-03-01T15:44:30;8.90;;;6.90;;
10509;SDS011;5303;53.266;10.410;2023-03-01T15:46:57;10.40;;;8.00;;
10509;SDS011;5303;53.266;10.410;2023-03-01T15:49:25;10.03;;;7.27;;
10509;SDS011;5303;53.266;10.410;2023-03-01T15:52:03;9.87;;;7.53;;
10509;SDS011;5303;53.266;10.410;2023-03-01T15:54:29;10.23;;;7.97;;
10509;SDS011;5303;53.266;10.410;2023-03-01T15:56:55;11.03;;;7.57;;
10509;SDS011;5303;53.266;10.410;2023-03-01T15:59:20;10.77;;;7.80;;
10509;SDS011;5303;53.266;10.410;2023-03-01T16:01:47;10.47;;;7.43;;
10509;SDS011;5303;53.266;10.410;2023-03-01T16:04:14;8.33;;;6.93;;
10509;SDS011;5303;53.266;10.410;2023-03-01T16:06:49;8.47;;;7.13;;
10509;SDS011;5303;53.266;10.410;2023-03-01T16:09:19;10.73;;;7.43;;
10509;SDS011;5303;53.266;10.410;2023-03-01T16:11:48;9.20;;;6.93;;
10509;SDS011;5303;53.266;10.410;2023-03-01T16:14:13;10.17;;;7.30;;
10509;SDS011;5303;53.266;10.410;2023-03-01T16:16:39;9.57;;;6.90;;
10509;SDS011;5303;53.266;10.410;2023-03-01T16:19:04;10.73;;;7.10;;
10509;SDS011;5303;53.266;10.410;2023-03-01T16:21:30;10.00;;;7.27;;
10509;SDS011;5303;53.266;10.410;2023-03-01T16:23:55;10.63;;;7.50;;
10509;SDS011;5303;53.266;10.410;2023-03-01T16:26:21;9.60;;;6.97;;
10509;SDS011;5303;53.266;10.410;2023-03-01T16:28:46;11.90;;;6.80;;
10509;SDS011;5303;53.266;10.410;2023-03-01T16:31:13;10.70;;;7.83;;
10509;SDS011;5303;53.266;10.410;2023-03-01T16:33:42;9.73;;;6.87;;
10509;SDS011;5303;53.266;10.410;2023-03-01T16:36:14;9.40;;;6.73;;
10509;SDS011;5303;53.266;10.410;2023-03-01T16:38:39;9.93;;;6.13;;
10509;SDS011;5303;53.266;10.410;2023-03-01T16:41:05;9.03;;;6.10;;
10509;SDS011;5303;53.266;10.410;2023-03-01T16:43:32;8.30;;;6.23;;
10509;SDS011;5303;53.266;10.410;2023-03-01T16:45:58;9.60;;;6.10;;
10509;SDS011;5303;53.266;10.410;2023-03-01T16:48:24;10.60;;;6.53;;
10509;SDS011;5303;53.266;10.410;2023-03-01T16:50:57;8.90;;;6.27;;
10509;SDS011;5303;53.266;10.410;2023-03-01T16:53:24;11.53;;;6.60;;